Time;durP1;ratioP1;P1;durP2;ratioP2;P2;SDS_P1;SDS_P2;PMS_P1;PMS_P2;Temp;Humidity;BMP_temperature;BMP_pressure;BME280_temperature;BME280_humidity;BME280_pressure;Samples;Min_cycle;Max_cycle;Signal;HPM_P1;HPM_P2
2023/08/14 00:01:51;;;;;;;7.90;6.50;;;;;;;20.35;100.00;98151.84;5031571;28;20208;-82
2023/08/14 00:04:17;;;;;;;10.20;7.07;;;;;;;20.32;100.00;98157.56;5031880;28;20220;-82
2023/08/14 00:06:44;;;;;;;7.60;6.43;;;;;;;20.32;100.00;98156.72;5031870;28;20251;-82
2023/08/14 00:09:11;;;;;;;7.43;6.03;;;;;;;20.29;100.00;98157.06;5031320;28;20208;-82
2023/08/14 00:11:38;;;;;;;7.93;6.30;;;;;;;20.25;100.00;98161.06;5031560;28;20594;-83
2023/08/14 00:14:05;;;;;;;6.73;5.90;;;;;;;20.24;100.00;98159.41;5031721;28;20208;-83
2023/08/14 00:16:32;;;;;;;8.00;6.17;;;;;;;20.26;100.00;98158.22;5031714;28;20232;-83
2023/08/14 00:18:58;;;;;;;8.63;6.53;;;;;;;20.29;100.00;98154.38;5031382;28;20232;-82
2023/08/14 00:21:25;;;;;;;8.80;6.50;;;;;;;20.31;100.00;98145.13;5031238;28;20230;-82
2023/08/14 00:23:51;;;;;;;9.83;6.50;;;;;;;20.34;100.00;98143.94;5030946;28;20224;-82
2023/08/14 00:26:18;;;;;;;7.73;6.30;;;;;;;20.35;100.00;98149.16;5031464;28;20733;-81
2023/08/14 00:28:46;;;;;;;6.67;5.93;;;;;;;20.34;100.00;98146.63;5031329;28;20209;-82
2023/08/14 00:31:12;;;;;;;8.93;7.43;;;;;;;20.36;100.00;98155.38;5031267;28;20547;-82
2023/08/14 00:33:39;;;;;;;8.47;6.90;;;;;;;20.39;100.00;98158.56;5031427;28;20211;-82
2023/08/14 00:36:06;;;;;;;9.07;7.33;;;;;;;20.41;100.00;98151.19;5031587;28;20234;-82
2023/08/14 00:38:33;;;;;;;10.03;7.37;;;;;;;20.41;100.00;98145.81;5031114;28;20232;-82
2023/08/14 00:40:59;;;;;;;8.50;6.97;;;;;;;20.42;100.00;98146.66;5031044;28;20697;-83
2023/08/14 00:43:26;;;;;;;8.13;6.87;;;;;;;20.43;100.00;98148.34;5031082;28;20584;-83
2023/08/14 00:45:56;;;;;;;9.83;7.43;;;;;;;20.47;100.00;98147.84;5031058;28;20228;-83
2023/08/14 00:48:23;;;;;;;11.10;8.07;;;;;;;20.55;100.00;98137.09;5031023;28;20224;-83
2023/08/14 00:50:50;;;;;;;8.47;7.50;;;;;;;20.54;100.00;98140.78;5030719;28;20213;-82
2023/08/14 00:53:18;;;;;;;8.43;7.37;;;;;;;20.55;100.00;98137.09;5031101;28;20305;-81
2023/08/14 00:55:46;;;;;;;7.23;6.20;;;;;;;20.53;100.00;98136.44;5031098;28;20240;-81
2023/08/14 00:58:12;;;;;;;7.60;6.63;;;;;;;20.53;100.00;98138.25;5031213;28;20234;-83
2023/08/14 01:00:40;;;;;;;6.97;6.23;;;;;;;20.48;100.00;98128.03;5029860;28;20240;-84
2023/08/14 01:03:08;;;;;;;7.13;5.67;;;;;;;20.47;100.00;98134.41;5031039;28;20212;-81
2023/08/14 01:05:34;;;;;;;7.23;6.37;;;;;;;20.48;100.00;98133.41;5030818;28;20235;-82
2023/08/14 01:08:01;;;;;;;6.70;6.00;;;;;;;20.47;100.00;98126.34;5031013;28;20240;-81
2023/08/14 01:10:36;;;;;;;6.17;5.53;;;;;;;20.48;100.00;98125.34;5030718;28;20662;-82
2023/08/14 01:13:11;;;;;;;6.30;5.70;;;;;;;20.49;100.00;98131.56;5031334;28;20270;-83
2023/08/14 01:15:42;;;;;;;6.77;5.20;;;;;;;20.49;100.00;98137.75;5030934;28;20247;-83
2023/08/14 01:18:13;;;;;;;5.57;4.80;;;;;;;20.50;100.00;98143.97;5030880;28;20246;-83
2023/08/14 01:20:41;;;;;;;6.23;5.00;;;;;;;20.50;100.00;98138.59;5030543;28;20220;-82
2023/08/14 01:23:21;;;;;;;5.87;5.10;;;;;;;20.52;100.00;98142.81;5030767;28;20220;-82
2023/08/14 01:25:52;;;;;;;6.37;5.60;;;;;;;20.53;100.00;98144.47;5031035;28;20240;-82
2023/08/14 01:28:19;;;;;;;7.00;5.90;;;;;;;20.50;100.00;98133.25;5031027;28;20213;-81
2023/08/14 01:30:45;;;;;;;7.17;5.43;;;;;;;20.44;100.00;98142.81;5030579;28;20215;-81
2023/08/14 01:33:12;;;;;;;6.17;5.40;;;;;;;20.37;100.00;98149.81;5031003;28;20216;-82
2023/08/14 01:35:42;;;;;;;6.60;5.70;;;;;;;20.35;100.00;98154.53;5033517;28;20224;-82
2023/08/14 01:38:26;;;;;;;6.57;5.57;;;;;;;20.33;100.00;98150.34;5034678;28;20213;-82
2023/08/14 01:41:02;;;;;;;6.93;6.20;;;;;;;20.35;100.00;98157.22;5034406;28;20211;-82
2023/08/14 01:43:32;;;;;;;8.17;5.93;;;;;;;20.34;100.00;98166.28;5034681;28;20212;-82
2023/08/14 01:45:59;;;;;;;9.53;6.77;;;;;;;20.38;100.00;98182.91;5034723;28;20299;-82
2023/08/14 01:48:26;;;;;;;9.07;7.57;;;;;;;20.42;100.00;98193.13;5034612;28;20234;-82
2023/08/14 01:50:56;;;;;;;9.37;7.63;;;;;;;20.44;100.00;98175.03;5033938;28;20211;-82
2023/08/14 01:53:23;;;;;;;13.30;8.17;;;;;;;20.43;100.00;98164.44;5034111;28;20404;-82
2023/08/14 01:55:49;;;;;;;9.97;7.43;;;;;;;20.40;100.00;98149.50;5034172;28;20244;-83
2023/08/14 01:58:17;;;;;;;8.50;7.33;;;;;;;20.35;100.00;98141.13;5033773;28;20219;-82
2023/08/14 02:00:43;;;;;;;9.83;7.17;;;;;;;20.34;100.00;98134.06;5033750;28;20691;-82
2023/08/14 02:03:10;;;;;;;10.27;7.67;;;;;;;20.31;100.00;98123.66;5034247;28;20568;-83
2023/08/14 02:05:36;;;;;;;9.70;8.27;;;;;;;20.28;100.00;98121.31;5034215;28;20228;-82
2023/08/14 02:08:03;;;;;;;12.10;9.00;;;;;;;20.32;100.00;98125.34;5034229;28;20216;-82
2023/08/14 02:10:29;;;;;;;14.60;9.77;;;;;;;20.34;100.00;98115.28;5033726;28;20205;-81
2023/08/14 02:12:56;;;;;;;11.97;9.37;;;;;;;20.35;100.00;98108.06;5034015;28;20312;-82
2023/08/14 02:15:24;;;;;;;10.40;8.97;;;;;;;20.37;100.00;98090.78;5034296;28;20229;-82
2023/08/14 02:17:51;;;;;;;12.37;8.73;;;;;;;20.35;100.00;98090.09;5033716;28;20232;-82
2023/08/14 02:20:18;;;;;;;10.87;8.47;;;;;;;20.35;100.00;98082.06;5033214;28;20235;-82
2023/08/14 02:22:44;;;;;;;10.50;8.90;;;;;;;20.35;100.00;98084.75;5033996;28;20231;-82
2023/08/14 02:27:45;;;;;;;11.40;9.23;;;;;;;20.38;100.00;98086.25;5012431;28;20225;-77
2023/08/14 02:30:12;;;;;;;12.37;8.57;;;;;;;20.35;100.00;98094.66;5013397;28;20213;-77
2023/08/14 02:32:39;;;;;;;9.90;7.80;;;;;;;20.34;100.00;98090.25;5013908;28;20213;-76
2023/08/14 02:35:06;;;;;;;9.63;7.57;;;;;;;20.33;100.00;98084.06;5013938;28;20211;-77
2023/08/14 02:37:33;;;;;;;10.20;7.57;;;;;;;20.32;100.00;98085.09;5013551;28;20226;-76
2023/08/14 02:39:59;;;;;;;10.67;7.20;;;;;;;20.33;100.00;98067.97;5013225;28;20243;-77
2023/08/14 02:42:26;;;;;;;13.43;9.07;;;;;;;20.36;100.00;98064.94;5013540;28;20217;-77
2023/08/14 02:44:53;;;;;;;10.20;7.87;;;;;;;20.37;100.00;98058.56;5013961;28;20215;-77
2023/08/14 02:47:20;;;;;;;9.73;8.00;;;;;;;20.37;100.00;98057.72;5012697;28;20241;-76
2023/08/14 02:49:48;;;;;;;9.70;8.53;;;;;;;20.37;100.00;98044.31;5013151;28;20215;-76
2023/08/14 02:52:14;;;;;;;11.43;8.87;;;;;;;20.37;100.00;98047.00;5013379;28;20661;-76
2023/08/14 02:54:41;;;;;;;10.43;7.90;;;;;;;20.33;100.00;98054.56;5013476;28;20220;-77
2023/08/14 02:57:07;;;;;;;11.47;8.03;;;;;;;20.29;100.00;98055.06;5013171;28;20727;-77
2023/08/14 02:59:35;;;;;;;9.63;7.87;;;;;;;20.26;100.00;98072.34;5012853;28;20716;-78
2023/08/14 03:02:01;;;;;;;10.40;6.60;;;;;;;20.18;100.00;98080.38;5013375;28;20212;-82
2023/08/14 03:04:29;;;;;;;5.23;4.63;;;;;;;20.03;100.00;98082.00;5013261;28;20216;-83
2023/08/14 03:06:57;;;;;;;6.53;4.67;;;;;;;19.94;100.00;98077.63;5013029;28;20234;-83
2023/08/14 03:09:24;;;;;;;4.73;4.23;;;;;;;19.85;100.00;98062.53;5013270;28;20209;-84
2023/08/14 03:11:50;;;;;;;6.00;4.53;;;;;;;19.76;100.00;98063.50;5012954;28;20217;-79
2023/08/14 03:14:17;;;;;;;8.03;4.73;;;;;;;19.71;100.00;98063.19;5013048;28;20213;-78
2023/08/14 03:16:43;;;;;;;5.73;4.80;;;;;;;19.59;100.00;98064.50;5013039;28;20226;-78
2023/08/14 03:19:10;;;;;;;7.17;4.73;;;;;;;19.55;100.00;98063.13;5012637;28;20240;-78
2023/08/14 03:21:36;;;;;;;5.27;4.43;;;;;;;19.49;100.00;98071.81;5012839;28;20582;-78
2023/08/14 03:24:04;;;;;;;7.00;5.07;;;;;;;19.48;100.00;98070.16;5013096;28;20211;-78
2023/08/14 03:26:31;;;;;;;6.07;5.20;;;;;;;19.46;100.00;98072.16;5012896;28;20259;-76
2023/08/14 03:28:58;;;;;;;6.03;4.93;;;;;;;19.42;100.00;98073.47;5013044;28;20212;-76
2023/08/14 03:31:24;;;;;;;8.23;5.57;;;;;;;19.38;100.00;98082.84;5012692;28;20222;-77
2023/08/14 03:33:50;;;;;;;8.50;5.80;;;;;;;19.34;100.00;98089.53;5012531;28;20218;-77
2023/08/14 03:36:17;;;;;;;7.47;5.40;;;;;;;19.32;100.00;98083.47;5012391;28;20246;-77
2023/08/14 03:38:43;;;;;;;7.10;5.03;;;;;;;19.26;100.00;98086.81;5012707;28;20209;-77
2023/08/14 03:41:12;;;;;;;6.80;5.13;;;;;;;19.21;100.00;98088.31;5012369;28;20225;-77
2023/08/14 03:43:38;;;;;;;7.30;5.90;;;;;;;19.14;100.00;98082.69;5012621;28;20213;-77
2023/08/14 03:46:05;;;;;;;6.53;5.50;;;;;;;19.14;100.00;98076.53;5012332;28;20238;-77
2023/08/14 03:48:31;;;;;;;6.23;5.27;;;;;;;19.11;100.00;98072.31;5012322;28;20212;-77
2023/08/14 03:50:58;;;;;;;5.90;5.30;;;;;;;19.05;100.00;98072.09;5011861;28;20210;-76
2023/08/14 03:53:24;;;;;;;7.83;6.10;;;;;;;19.04;100.00;98071.28;5012387;28;20340;-79
2023/08/14 03:55:51;;;;;;;6.60;5.87;;;;;;;19.02;100.00;98062.53;5012309;28;20249;-78
2023/08/14 03:58:19;;;;;;;6.37;5.63;;;;;;;18.97;100.00;98075.56;5012238;28;20216;-77
2023/08/14 04:01:02;;;;;;;6.60;5.70;;;;;;;18.92;100.00;98071.69;5011852;28;20232;-77
2023/08/14 04:03:44;;;;;;;6.20;5.13;;;;;;;18.87;100.00;98079.38;5012013;28;20209;-79
2023/08/14 04:06:11;;;;;;;6.57;5.33;;;;;;;18.85;100.00;98090.25;5012218;28;20535;-77
2023/08/14 04:08:37;;;;;;;6.70;5.27;;;;;;;18.83;100.00;98078.03;5012054;28;20209;-76
2023/08/14 04:11:04;;;;;;;9.17;6.67;;;;;;;18.84;100.00;98085.88;5011586;28;20225;-77
2023/08/14 04:13:32;;;;;;;9.63;6.23;;;;;;;18.79;100.00;98077.50;5011777;28;20676;-78
2023/08/14 04:16:00;;;;;;;6.20;5.20;;;;;;;18.76;100.00;98076.94;5011910;28;20232;-78
2023/08/14 04:18:27;;;;;;;7.13;5.77;;;;;;;18.73;100.00;98066.56;5012031;28;20221;-77
2023/08/14 04:20:54;;;;;;;6.03;4.93;;;;;;;18.70;100.00;98065.06;5011482;28;20228;-77
2023/08/14 04:23:21;;;;;;;5.87;5.00;;;;;;;18.71;100.00;98077.44;5011666;28;20600;-76
2023/08/14 04:25:47;;;;;;;6.60;5.63;;;;;;;18.71;100.00;98081.97;5011547;28;20327;-77
2023/08/14 04:28:14;;;;;;;5.80;5.00;;;;;;;18.71;100.00;98082.78;5011587;28;20205;-78
2023/08/14 04:30:42;;;;;;;6.80;5.63;;;;;;;18.71;100.00;98074.75;5011769;28;20563;-76
2023/08/14 04:33:08;;;;;;;6.43;5.27;;;;;;;18.73;100.00;98078.13;5011775;28;20304;-78
2023/08/14 04:35:35;;;;;;;6.33;5.47;;;;;;;18.75;100.00;98072.59;5011718;28;20232;-77
2023/08/14 04:38:01;;;;;;;7.07;5.03;;;;;;;18.79;100.00;98061.44;5011666;28;20692;-77
2023/08/14 04:40:28;;;;;;;7.27;5.37;;;;;;;18.78;100.00;98054.38;5011165;28;20666;-78
2023/08/14 04:42:55;;;;;;;7.07;5.07;;;;;;;18.73;100.00;98054.03;5011681;28;20581;-77
2023/08/14 04:45:22;;;;;;;7.17;5.20;;;;;;;18.72;100.00;98055.00;5011666;28;20213;-77
2023/08/14 04:47:49;;;;;;;9.83;5.47;;;;;;;18.79;100.00;98065.94;5011353;28;20207;-78
2023/08/14 04:50:16;;;;;;;7.00;5.23;;;;;;;18.89;100.00;98067.50;5011209;28;20200;-78
2023/08/14 04:52:42;;;;;;;6.43;5.67;;;;;;;18.95;100.00;98055.34;5011590;28;20209;-78
2023/08/14 04:55:09;;;;;;;7.00;5.20;;;;;;;19.04;100.00;98054.34;5011336;28;20699;-77
2023/08/14 04:57:36;;;;;;;9.20;5.87;;;;;;;19.15;100.00;98046.03;5011402;28;20237;-77
2023/08/14 05:00:04;;;;;;;6.83;6.00;;;;;;;19.19;100.00;98042.88;5011288;28;20241;-77
2023/08/14 05:02:30;;;;;;;6.60;5.57;;;;;;;19.18;100.00;98051.91;5011359;28;20711;-79
2023/08/14 05:04:58;;;;;;;8.10;5.27;;;;;;;19.12;100.00;98068.63;5011596;28;20285;-77
2023/08/14 05:07:24;;;;;;;7.20;5.37;;;;;;;19.06;100.00;98052.34;5011305;28;20601;-77
2023/08/14 05:09:51;;;;;;;7.87;5.87;;;;;;;19.04;100.00;98065.94;5012219;28;20206;-78
2023/08/14 05:12:17;;;;;;;7.93;5.43;;;;;;;19.05;100.00;98066.75;5015274;28;20221;-77
2023/08/14 05:14:44;;;;;;;7.80;6.47;;;;;;;19.09;100.00;98052.88;5015190;28;20208;-77
2023/08/14 05:17:10;;;;;;;9.00;6.80;;;;;;;19.21;100.00;98050.78;5015189;28;20609;-77
2023/08/14 05:19:37;;;;;;;9.23;7.57;;;;;;;19.34;100.00;98046.66;5014856;28;20237;-76
2023/08/14 05:22:05;;;;;;;9.83;7.37;;;;;;;19.46;100.00;98039.16;5015152;28;20205;-79
2023/08/14 05:24:31;;;;;;;9.30;7.73;;;;;;;19.54;100.00;98048.06;5014933;28;20218;-78
2023/08/14 05:26:58;;;;;;;11.03;8.00;;;;;;;19.63;100.00;98036.34;5014916;28;20257;-79
2023/08/14 05:29:24;;;;;;;11.10;8.20;;;;;;;19.72;100.00;98034.50;5014672;28;20215;-78
2023/08/14 05:31:50;;;;;;;11.80;8.50;;;;;;;19.79;100.00;98030.16;5014972;28;20598;-79
2023/08/14 05:34:17;;;;;;;9.73;8.03;;;;;;;19.91;100.00;98028.81;5015139;28;20216;-78
2023/08/14 05:36:44;;;;;;;10.33;7.70;;;;;;;20.01;100.00;98025.00;5014752;28;20225;-79
2023/08/14 05:39:11;;;;;;;9.13;7.73;;;;;;;20.09;100.00;98024.19;5014568;28;20471;-77
2023/08/14 05:41:38;;;;;;;8.80;7.43;;;;;;;20.18;100.00;98032.06;5014903;28;20225;-78
2023/08/14 05:44:05;;;;;;;11.30;7.30;;;;;;;20.27;100.00;98023.00;5014628;28;20213;-77
2023/08/14 05:46:31;;;;;;;6.87;6.07;;;;;;;20.29;100.00;98026.34;5014779;28;20236;-78
2023/08/14 05:48:58;;;;;;;7.23;6.10;;;;;;;20.26;100.00;98015.13;5014558;28;20231;-78
2023/08/14 05:51:24;;;;;;;7.20;5.43;;;;;;;20.27;100.00;98014.09;5014377;28;20217;-83
2023/08/14 05:53:51;;;;;;;8.17;5.80;;;;;;;20.33;100.00;98008.91;5015378;28;20216;-80
2023/08/14 05:56:19;;;;;;;6.77;5.30;;;;;;;20.42;100.00;98024.00;5014657;28;20235;-80
2023/08/14 05:58:45;;;;;;;5.13;4.60;;;;;;;20.40;100.00;98014.44;5014394;28;20698;-81
2023/08/14 06:01:12;;;;;;;5.50;4.70;;;;;;;20.38;100.00;98033.41;5014346;28;20259;-82
2023/08/14 06:03:39;;;;;;;7.57;4.73;;;;;;;20.36;100.00;98043.47;5014472;28;20205;-81
2023/08/14 06:06:06;;;;;;;7.13;4.57;;;;;;;20.36;100.00;98043.47;5014323;28;20649;-81
2023/08/14 06:08:32;;;;;;;5.10;4.60;;;;;;;20.35;100.00;98043.66;5014414;28;20208;-79
2023/08/14 06:10:59;;;;;;;6.47;5.20;;;;;;;20.36;100.00;98030.03;5014235;28;20253;-80
2023/08/14 06:13:26;;;;;;;6.70;4.80;;;;;;;20.37;100.00;98042.44;5014303;28;20587;-79
2023/08/14 06:15:53;;;;;;;4.60;4.20;;;;;;;20.34;100.00;98048.16;5014243;28;20238;-86
2023/08/14 06:18:19;;;;;;;5.87;4.40;;;;;;;20.35;100.00;98057.91;5014202;28;20231;-83
2023/08/14 06:20:46;;;;;;;7.33;4.87;;;;;;;20.30;100.00;98048.69;5012986;28;20241;-81
2023/08/14 06:23:12;;;;;;;6.43;5.10;;;;;;;20.26;100.00;98045.50;5013709;28;20292;-81
2023/08/14 06:25:39;;;;;;;5.93;4.80;;;;;;;20.27;100.00;98038.25;5014140;28;20247;-81
2023/08/14 06:28:06;;;;;;;5.20;4.70;;;;;;;20.28;100.00;98026.50;5014086;28;20300;-82
2023/08/14 06:30:34;;;;;;;6.63;5.00;;;;;;;20.34;100.00;98015.97;5005357;28;20638;-82
2023/08/14 06:33:01;;;;;;;5.37;4.87;;;;;;;20.39;100.00;98029.72;4994269;28;20218;-83
2023/08/14 06:35:28;;;;;;;5.80;4.27;;;;;;;20.46;100.00;98040.59;4994261;28;20213;-83
2023/08/14 06:37:54;;;;;;;5.07;4.00;;;;;;;20.49;100.00;98045.66;4994367;28;20217;-81
2023/08/14 06:40:21;;;;;;;4.93;4.40;;;;;;;20.48;100.00;98039.41;4993955;28;20234;-85
2023/08/14 06:42:47;;;;;;;6.57;4.50;;;;;;;20.41;100.00;98051.84;4994372;28;20210;-85
2023/08/14 06:45:15;;;;;;;5.17;4.60;;;;;;;20.37;100.00;98055.88;4994124;28;20220;-83
2023/08/14 06:47:46;;;;;;;5.97;4.63;;;;;;;20.35;100.00;98063.25;4994074;28;20264;-85
2023/08/14 06:50:12;;;;;;;5.43;4.87;;;;;;;20.35;100.00;98057.91;4993777;28;20579;-81
2023/08/14 06:52:39;;;;;;;5.83;5.23;;;;;;;20.37;100.00;98053.19;4992600;28;20669;-77
2023/08/14 06:55:06;;;;;;;7.40;5.50;;;;;;;20.42;100.00;98056.22;4992269;28;20237;-81
2023/08/14 06:57:33;;;;;;;7.20;5.57;;;;;;;20.61;100.00;98061.22;4993120;28;20791;-86
2023/08/14 07:00:05;;;;;;;6.07;5.23;;;;;;;20.81;100.00;98067.91;4993512;28;20213;-74
2023/08/14 07:02:31;;;;;;;6.53;5.27;;;;;;;20.92;100.00;98069.44;4993505;28;20225;-74
2023/08/14 07:04:59;;;;;;;5.40;4.90;;;;;;;21.00;100.00;98077.47;4993641;28;20214;-75
2023/08/14 07:07:26;;;;;;;6.83;4.63;;;;;;;21.05;100.00;98080.47;4993776;28;20241;-76
2023/08/14 07:09:52;;;;;;;4.63;4.17;;;;;;;21.15;100.00;98079.25;4993791;28;20235;-75
2023/08/14 07:12:19;;;;;;;4.90;4.40;;;;;;;21.26;100.00;98076.22;4993587;28;20210;-75
2023/08/14 07:14:45;;;;;;;5.43;4.80;;;;;;;21.35;100.00;98072.50;4993870;28;20657;-74
2023/08/14 07:17:12;;;;;;;5.00;4.50;;;;;;;21.45;100.00;98085.72;4993374;28;20604;-77
2023/08/14 07:19:38;;;;;;;5.50;4.37;;;;;;;21.58;100.00;98086.81;4993871;28;20259;-81
2023/08/14 07:22:06;;;;;;;4.83;4.33;;;;;;;21.72;100.00;98091.50;4994495;28;20240;-77
2023/08/14 07:24:32;;;;;;;5.60;4.57;;;;;;;21.87;100.00;98081.66;4994460;28;20220;-78
2023/08/14 07:27:00;;;;;;;5.33;4.33;;;;;;;22.03;100.00;98084.25;4993771;28;20617;-77
2023/08/14 07:29:26;;;;;;;4.33;3.93;;;;;;;22.13;100.00;98079.44;4994156;28;20217;-79
2023/08/14 07:31:53;;;;;;;4.90;4.40;;;;;;;22.24;100.00;98081.72;4992910;28;20213;-82
2023/08/14 07:34:19;;;;;;;5.27;4.23;;;;;;;22.31;100.00;98081.84;4992665;28;20213;-78
2023/08/14 07:36:46;;;;;;;4.17;3.77;;;;;;;22.34;100.00;98093.09;4992925;28;20237;-78
2023/08/14 07:39:14;;;;;;;4.53;3.70;;;;;;;22.39;100.00;98090.72;4992690;28;20210;-78
2023/08/14 07:41:40;;;;;;;3.87;3.50;;;;;;;22.44;100.00;98092.91;4992912;28;20700;-78
2023/08/14 07:44:06;;;;;;;5.43;3.90;;;;;;;22.52;100.00;98088.28;4992831;28;20209;-78
2023/08/14 07:46:33;;;;;;;4.03;3.67;;;;;;;22.60;100.00;98085.50;4993086;28;20226;-79
2023/08/14 07:48:59;;;;;;;3.87;3.47;;;;;;;22.68;100.00;98085.41;4992695;28;20727;-79
2023/08/14 07:51:26;;;;;;;4.03;3.37;;;;;;;22.75;100.00;98088.22;4992688;28;20590;-80
2023/08/14 07:53:53;;;;;;;6.80;3.87;;;;;;;22.83;100.00;98091.69;4992894;28;20222;-78
2023/08/14 07:56:21;;;;;;;5.30;3.50;;;;;;;22.95;100.00;98092.91;4992849;28;20245;-80
2023/08/14 07:58:47;;;;;;;3.83;3.43;;;;;;;23.06;100.00;98095.16;4992601;28;20242;-79
2023/08/14 08:01:14;;;;;;;4.20;3.80;;;;;;;23.20;100.00;98094.38;4992617;28;20677;-80
2023/08/14 08:03:40;;;;;;;3.97;3.60;;;;;;;23.32;100.00;98092.88;4992497;28;20212;-80
2023/08/14 08:06:07;;;;;;;5.67;3.83;;;;;;;23.48;100.00;98097.25;4992470;28;20230;-80
2023/08/14 08:08:33;;;;;;;3.77;3.37;;;;;;;23.60;100.00;98096.56;4992743;28;20220;-79
2023/08/14 08:11:00;;;;;;;3.57;3.20;;;;;;;23.73;100.00;98091.34;4992239;28;20213;-80
2023/08/14 08:13:28;;;;;;;3.87;3.30;;;;;;;23.86;100.00;98093.34;4992542;28;20218;-80
2023/08/14 08:15:54;;;;;;;3.57;3.00;;;;;;;23.95;100.00;98092.25;4992576;28;20316;-79
2023/08/14 08:18:21;;;;;;;3.80;3.40;;;;;;;24.07;100.00;98101.53;4992432;28;20244;-80
2023/08/14 08:20:47;;;;;;;3.87;3.47;;;;;;;24.17;100.00;98096.66;4991908;28;20234;-79
2023/08/14 08:23:14;;;;;;;3.50;3.20;;;;;;;24.27;100.00;98103.41;4992508;28;20210;-79
2023/08/14 08:25:40;;;;;;;3.80;3.40;;;;;;;24.35;100.00;98105.16;4991808;28;20234;-80
2023/08/14 08:28:07;;;;;;;3.40;3.10;;;;;;;24.40;100.00;98108.13;4992154;28;20213;-78
2023/08/14 08:30:34;;;;;;;4.20;3.17;;;;;;;24.46;100.00;98112.75;5079499;22;20232;-79
2023/08/14 08:33:01;;;;;;;3.47;2.97;;;;;;;24.53;100.00;98113.63;5066751;28;20207;-85
2023/08/14 08:35:27;;;;;;;3.23;2.77;;;;;;;24.56;100.00;98114.09;5072406;28;20314;-85
2023/08/14 08:37:54;;;;;;;3.10;2.80;;;;;;;24.67;100.00;98119.00;5069126;28;20212;-84
2023/08/14 08:40:22;;;;;;;3.77;3.00;;;;;;;24.74;100.00;98110.97;5071716;28;20230;-86
2023/08/14 08:42:49;;;;;;;3.10;2.80;;;;;;;24.85;100.00;98118.53;5076435;28;20192;-86
2023/08/14 08:45:17;;;;;;;2.90;2.70;;;;;;;24.93;100.00;98115.69;5075899;28;20196;-86
2023/08/14 08:47:49;;;;;;;3.53;2.47;;;;;;;25.08;100.00;98119.13;5076054;28;20203;-86
2023/08/14 08:50:16;;;;;;;3.47;2.70;;;;;;;25.23;100.00;98120.69;5076339;28;20231;-86
2023/08/14 08:52:44;;;;;;;2.97;2.77;;;;;;;25.30;100.00;98112.66;5076561;28;20214;-86
2023/08/14 08:55:11;;;;;;;2.80;2.60;;;;;;;25.41;100.00;98110.22;5074690;28;20280;-85
2023/08/14 08:57:39;;;;;;;2.60;2.40;;;;;;;25.59;100.00;98118.66;5068491;28;20240;-85
2023/08/14 09:00:07;;;;;;;3.73;2.83;;;;;;;25.71;100.00;98103.50;5068785;28;20228;-85
2023/08/14 09:02:34;;;;;;;3.03;2.80;;;;;;;25.79;100.00;98100.63;5069985;28;20262;-85
2023/08/14 09:05:02;;;;;;;3.13;2.70;;;;;;;25.88;100.00;98101.28;5072322;28;20196;-86
2023/08/14 09:07:28;;;;;;;3.00;2.80;;;;;;;25.95;100.00;98119.28;5065941;28;20212;-85
2023/08/14 09:09:55;;;;;;;3.13;2.80;;;;;;;26.14;100.00;98107.66;5069018;28;20255;-85
2023/08/14 09:12:21;;;;;;;3.23;2.93;;;;;;;26.29;100.00;98111.06;5062078;28;20204;-86
2023/08/14 09:15:02;;;;;;;3.63;3.33;;;;;;;26.35;100.00;98103.97;5051158;28;20551;-86
2023/08/14 09:17:29;;;;;;;4.30;3.27;;;;;;;26.37;100.00;98110.84;5050886;28;20238;-87
2023/08/14 09:19:55;;;;;;;3.30;2.80;;;;;;;26.41;100.00;98109.41;5050359;28;20230;-84
2023/08/14 09:22:27;;;;;;;4.77;3.10;;;;;;;26.53;100.00;98109.63;5051682;28;20598;-82
2023/08/14 09:24:54;;;;;;;3.93;3.20;;;;;;;26.49;100.00;98101.09;5050514;28;20212;-81
2023/08/14 09:27:21;;;;;;;3.37;3.07;;;;;;;26.56;100.00;98110.09;5050723;28;20621;-78
2023/08/14 09:29:48;;;;;;;3.43;3.13;;;;;;;26.71;100.00;98116.13;5050051;28;20235;-78
2023/08/14 09:32:15;;;;;;;3.17;2.87;;;;;;;26.80;100.00;98098.63;5050659;28;20200;-81
2023/08/14 09:34:41;;;;;;;3.13;2.77;;;;;;;26.96;100.00;98103.66;5050404;28;20208;-82
2023/08/14 09:37:08;;;;;;;3.47;3.17;;;;;;;27.07;100.00;98086.72;5052327;28;20212;-83
2023/08/14 09:39:36;;;;;;;3.50;3.20;;;;;;;27.25;100.00;98089.63;5050280;28;20258;-86
2023/08/14 09:42:02;;;;;;;3.40;3.10;;;;;;;27.40;100.00;98088.34;5050437;28;20228;-82
2023/08/14 09:44:29;;;;;;;4.23;3.17;;;;;;;27.43;93.91;98063.50;5050387;28;20204;-83
2023/08/14 09:47:00;;;;;;;3.53;3.23;;;;;;;27.49;92.44;98069.94;5050225;28;20208;-84
2023/08/14 09:49:27;;;;;;;3.43;3.13;;;;;;;27.56;91.83;98068.03;5049909;28;20232;-85
2023/08/14 09:51:55;;;;;;;4.60;3.30;;;;;;;27.71;94.55;98068.63;5054413;28;20204;-85
2023/08/14 09:54:31;;;;;;;3.43;3.13;;;;;;;27.96;96.30;98078.59;5069423;28;20238;-79
2023/08/14 09:57:00;;;;;;;4.03;3.20;;;;;;;28.20;92.92;98063.41;5059777;28;20192;-80
2023/08/14 09:59:27;;;;;;;4.13;3.17;;;;;;;28.37;89.89;98061.84;5061426;28;20235;-81
2023/08/14 10:01:54;;;;;;;3.50;3.20;;;;;;;28.44;83.98;98057.22;5061245;28;20236;-83
2023/08/14 10:04:23;;;;;;;3.70;2.97;;;;;;;28.38;77.95;98036.34;5059174;28;20216;-82
2023/08/14 10:06:51;;;;;;;3.83;3.43;;;;;;;28.44;84.11;98058.03;5055890;28;20231;-79
2023/08/14 10:09:21;;;;;;;3.45;3.15;;;;;;;28.49;86.15;98062.81;5054603;28;20678;-80
2023/08/14 10:11:49;;;;;;;3.57;3.20;;;;;;;28.57;84.85;98057.09;5055083;28;20318;-78
2023/08/14 10:14:20;;;;;;;3.42;3.13;;;;;;;28.60;83.80;98056.66;5054492;28;20222;-79
2023/08/14 10:16:49;;;;;;;3.55;3.20;;;;;;;28.66;86.42;98061.19;5056876;28;20204;-80
2023/08/14 10:19:20;;;;;;;3.33;3.03;;;;;;;28.75;87.17;98059.88;5055914;28;20234;-80
2023/08/14 10:21:50;;;;;;;4.32;3.30;;;;;;;28.87;87.37;98058.09;5054310;28;20224;-81
2023/08/14 10:24:18;;;;;;;4.00;3.50;;;;;;;28.99;83.13;98046.28;5051198;28;20212;-80
2023/08/14 10:26:46;;;;;;;3.55;3.03;;;;;;;29.19;81.76;98046.09;5052579;28;20212;-82
2023/08/14 10:29:13;;;;;;;3.67;3.38;;;;;;;29.30;79.29;98032.59;5052194;28;20244;-80
2023/08/14 10:31:42;;;;;;;3.70;3.40;;;;;;;29.41;76.65;98025.56;5056672;28;20211;-81
2023/08/14 10:34:09;;;;;;;3.90;3.50;;;;;;;29.51;76.61;98036.72;5057174;28;20243;-80
2023/08/14 10:36:35;;;;;;;3.28;2.97;;;;;;;29.41;74.77;98031.81;5056581;28;20667;-82
2023/08/14 10:39:09;;;;;;;3.50;3.20;;;;;;;29.38;74.37;98023.25;5054036;28;20234;-81
2023/08/14 10:41:36;;;;;;;3.22;2.92;;;;;;;29.36;73.04;98020.78;5053434;28;20231;-79
2023/08/14 10:44:06;;;;;;;3.50;3.20;;;;;;;29.51;72.91;98017.66;5054135;28;20218;-81
2023/08/14 10:46:36;;;;;;;3.63;3.10;;;;;;;29.66;72.04;98018.16;5053514;28;20221;-81
2023/08/14 10:49:04;;;;;;;3.70;3.30;;;;;;;29.75;70.11;98014.03;5053464;28;20228;-82
2023/08/14 10:51:32;;;;;;;4.10;3.70;;;;;;;29.85;70.93;98015.19;5052908;28;20671;-81
2023/08/14 10:54:08;;;;;;;3.30;3.00;;;;;;;29.94;68.20;98007.47;5053047;28;20212;-84
2023/08/14 10:56:43;;;;;;;3.60;3.30;;;;;;;30.04;72.52;98024.97;5052826;28;20318;-80
2023/08/14 10:59:20;;;;;;;3.60;3.30;;;;;;;30.06;71.57;98024.72;5052493;28;20235;-77
2023/08/14 11:01:50;;;;;;;3.50;3.20;;;;;;;29.95;66.50;97993.63;5051902;28;20891;-79
2023/08/14 11:04:18;;;;;;;3.60;3.30;;;;;;;29.84;65.38;97997.13;5052723;28;20205;-79
2023/08/14 11:07:08;;;;;;;3.35;3.05;;;;;;;30.01;64.76;97992.72;5051998;28;20561;-79
2023/08/14 11:09:36;;;;;;;3.33;3.05;;;;;;;30.07;62.97;97985.50;5052236;28;20224;-78
2023/08/14 11:12:05;;;;;;;3.70;3.30;;;;;;;30.18;64.59;98007.38;5052295;28;20204;-79
2023/08/14 11:14:36;;;;;;;3.60;3.30;;;;;;;30.24;64.27;98000.16;5052521;28;20581;-79
2023/08/14 11:17:03;;;;;;;3.40;3.13;;;;;;;30.29;65.43;98013.94;5052283;28;20243;-79
2023/08/14 11:19:33;;;;;;;3.13;2.92;;;;;;;30.28;63.71;98009.53;5052137;28;20235;-79
2023/08/14 11:22:00;;;;;;;3.38;3.08;;;;;;;30.25;62.25;97989.03;5052181;28;20231;-79
2023/08/14 11:24:26;;;;;;;3.20;2.90;;;;;;;30.35;59.83;97980.25;5052305;28;20218;-79
2023/08/14 11:26:53;;;;;;;4.93;3.20;;;;;;;30.31;61.25;97992.72;5052118;28;20667;-79
2023/08/14 11:29:20;;;;;;;3.78;3.47;;;;;;;30.15;63.64;97996.13;5051914;28;20232;-79
2023/08/14 11:31:48;;;;;;;3.42;3.13;;;;;;;30.24;66.53;98016.50;5052049;28;20208;-79